Time;durP1;ratioP1;P1;durP2;ratioP2;P2;SDS_P1;SDS_P2;PMS_P1;PMS_P2;Temp;Humidity;BMP_temperature;BMP_pressure;BME280_temperature;BME280_humidity;BME280_pressure;Samples;Min_cycle;Max_cycle;Signal;HPM_P1;HPM_P2
2022/11/07 00:00:13;;;;;;;1.47;1.37;;;;;;;13.13;57.35;100515.22;5049971;27;97546;-82
2022/11/07 00:02:39;;;;;;;1.47;1.30;;;;;;;13.13;57.32;100537.31;5038768;27;96861;-82
2022/11/07 00:05:05;;;;;;;1.80;1.70;;;;;;;13.10;57.44;100557.69;5037689;27;98338;-82
2022/11/07 00:07:31;;;;;;;1.73;1.63;;;;;;;13.13;57.34;100534.53;5040145;27;99627;-84
2022/11/07 00:09:56;;;;;;;2.27;2.07;;;;;;;13.16;57.29;100536.28;5045539;27;98415;-83
2022/11/07 00:12:22;;;;;;;1.83;1.73;;;;;;;13.17;57.15;100535.78;5051776;27;96999;-82
2022/11/07 00:14:47;;;;;;;1.70;1.60;;;;;;;13.21;57.29;100543.81;5036041;27;97083;-81
2022/11/07 00:17:12;;;;;;;2.03;1.80;;;;;;;13.25;57.26;100560.84;5052271;27;97368;-85
2022/11/07 00:19:38;;;;;;;2.50;1.43;;;;;;;13.25;57.17;100556.06;5033676;27;98462;-81
2022/11/07 00:22:03;;;;;;;1.47;1.37;;;;;;;13.31;57.31;100544.97;5036859;27;97028;-82
2022/11/07 00:24:29;;;;;;;2.73;1.43;;;;;;;13.33;57.14;100545.22;5033596;27;96964;-82
2022/11/07 00:26:54;;;;;;;1.60;1.50;;;;;;;13.36;57.55;100549.72;5043100;27;99870;-86
2022/11/07 00:29:20;;;;;;;1.30;0.90;;;;;;;13.38;57.07;100547.19;5031742;27;97686;-81
2022/11/07 00:31:46;;;;;;;1.70;1.60;;;;;;;13.39;57.18;100535.59;5046103;27;96935;-82
2022/11/07 00:34:12;;;;;;;1.67;1.57;;;;;;;13.40;57.04;100545.41;5048549;27;96822;-82
2022/11/07 00:36:37;;;;;;;1.40;1.20;;;;;;;13.41;57.22;100549.66;5055864;27;98593;-81
2022/11/07 00:39:03;;;;;;;1.03;1.00;;;;;;;13.46;57.06;100557.16;5032534;27;99053;-84
2022/11/07 00:41:29;;;;;;;2.33;0.93;;;;;;;13.51;56.98;100553.63;5061896;27;96956;-86
2022/11/07 00:43:55;;;;;;;1.23;1.17;;;;;;;13.53;56.92;100559.38;5044077;27;97518;-83
2022/11/07 00:46:21;;;;;;;1.43;1.33;;;;;;;13.56;57.07;100576.19;5029261;27;100862;-81
2022/11/07 00:48:47;;;;;;;1.40;1.33;;;;;;;13.57;56.97;100556.31;5024691;27;99789;-82
2022/11/07 00:51:20;;;;;;;1.57;1.17;;;;;;;13.62;56.85;100568.59;5030698;27;96919;-82
2022/11/07 00:53:46;;;;;;;1.20;1.10;;;;;;;13.62;56.85;100569.34;5035525;27;97374;-81
2022/11/07 00:56:14;;;;;;;1.20;1.10;;;;;;;13.64;56.96;100566.06;5027720;27;97552;-81
2022/11/07 00:58:41;;;;;;;1.30;1.20;;;;;;;13.65;56.93;100573.13;5038853;27;98650;-82
2022/11/07 01:01:13;;;;;;;3.67;1.80;;;;;;;13.65;57.02;100573.13;5031461;27;97603;-81
2022/11/07 01:06:23;;;;;;;1.07;1.07;;;;;;;13.67;57.05;100587.16;5052818;27;101576;-82
2022/11/07 01:08:48;;;;;;;1.13;1.07;;;;;;;13.68;56.80;100572.81;5043489;27;98919;-81
2022/11/07 01:11:14;;;;;;;2.23;1.47;;;;;;;13.69;56.87;100579.09;5047702;27;97300;-86
2022/11/07 01:13:39;;;;;;;2.60;1.20;;;;;;;13.70;57.05;100594.41;5036613;27;96921;-82
2022/11/07 01:16:10;;;;;;;1.40;1.20;;;;;;;13.73;56.96;100579.56;5047758;27;97940;-82
2022/11/07 01:18:35;;;;;;;1.30;1.20;;;;;;;13.78;56.65;100589.84;5057400;27;97531;-82
2022/11/07 01:21:05;;;;;;;1.30;1.13;;;;;;;13.80;56.76;100588.06;5044821;27;97431;-82
2022/11/07 01:23:31;;;;;;;1.17;1.07;;;;;;;13.81;56.86;100591.56;5034407;27;97049;-82
2022/11/07 01:25:56;;;;;;;2.10;1.20;;;;;;;13.81;56.82;100586.03;5048480;27;98467;-81
2022/11/07 01:28:21;;;;;;;1.83;1.17;;;;;;;13.83;56.84;100589.03;5045409;27;98336;-82
2022/11/07 01:30:47;;;;;;;1.10;0.97;;;;;;;13.84;56.81;100593.31;5039962;27;96936;-83
2022/11/07 01:33:13;;;;;;;1.17;1.07;;;;;;;13.86;56.77;100597.06;5046303;27;97301;-84
2022/11/07 01:35:39;;;;;;;1.13;1.03;;;;;;;13.89;56.78;100593.25;5046764;27;98950;-84
2022/11/07 01:38:05;;;;;;;1.90;1.10;;;;;;;13.89;56.76;100578.69;5040949;27;99364;-85
2022/11/07 01:40:32;;;;;;;1.10;1.00;;;;;;;13.90;57.00;100594.00;5034211;27;96946;-83
2022/11/07 01:42:58;;;;;;;2.57;1.30;;;;;;;13.93;56.88;100584.69;5030423;27;97309;-82
2022/11/07 01:45:27;;;;;;;1.10;0.73;;;;;;;13.93;56.84;100582.66;5032763;27;99569;-83
2022/11/07 01:47:54;;;;;;;1.30;0.90;;;;;;;13.98;56.82;100578.31;5064368;27;97052;-83
2022/11/07 01:50:20;;;;;;;2.20;0.70;;;;;;;14.01;56.78;100577.31;5039984;27;97226;-82
2022/11/07 01:52:47;;;;;;;1.37;0.90;;;;;;;14.05;56.70;100580.53;5041010;27;96669;-83
2022/11/07 01:55:25;;;;;;;0.80;0.80;;;;;;;14.06;56.84;100584.81;5036968;27;98614;-82
2022/11/07 01:57:56;;;;;;;2.90;0.80;;;;;;;14.06;56.87;100590.34;5056992;27;96979;-82
2022/11/07 02:00:23;;;;;;;1.37;0.90;;;;;;;14.05;56.72;100584.03;5040061;27;96871;-82
2022/11/07 02:02:56;;;;;;;0.80;0.80;;;;;;;14.07;56.68;100587.03;5051621;27;96840;-84
2022/11/07 02:05:33;;;;;;;2.00;0.83;;;;;;;14.08;56.69;100588.56;5052737;27;98210;-82
2022/11/07 02:08:01;;;;;;;1.47;0.97;;;;;;;14.11;56.84;100581.22;5043259;27;97746;-80
2022/11/07 02:10:27;;;;;;;0.90;0.90;;;;;;;14.15;56.68;100593.50;5058652;27;97035;-83
2022/11/07 02:12:56;;;;;;;2.33;1.13;;;;;;;14.16;56.82;100583.94;5037964;27;97234;-81
2022/11/07 02:15:22;;;;;;;2.87;1.20;;;;;;;14.15;56.81;100582.44;5041910;27;99526;-81
2022/11/07 02:17:48;;;;;;;0.97;0.90;;;;;;;14.17;56.86;100576.41;5060186;27;96648;-83
2022/11/07 02:20:14;;;;;;;1.00;1.00;;;;;;;14.23;56.95;100588.16;5055232;27;96930;-82
2022/11/07 02:22:59;;;;;;;1.00;0.80;;;;;;;14.25;56.81;100586.38;5023488;27;96993;-81
2022/11/07 02:25:25;;;;;;;1.83;0.90;;;;;;;14.28;56.75;100582.53;5035876;27;104165;-84
2022/11/07 02:27:55;;;;;;;0.83;0.80;;;;;;;14.31;56.71;100575.25;5040971;27;99247;-82
2022/11/07 02:30:24;;;;;;;0.73;0.73;;;;;;;14.30;56.78;100582.06;5024427;27;96799;-84
2022/11/07 02:32:50;;;;;;;1.00;0.90;;;;;;;14.30;56.77;100586.84;5046436;27;97443;-81
2022/11/07 02:35:34;;;;;;;1.73;0.90;;;;;;;14.38;56.89;100582.97;5039033;27;96938;-82
2022/11/07 02:38:01;;;;;;;1.73;0.90;;;;;;;14.39;56.66;100578.97;5053582;27;100432;-82
2022/11/07 02:40:29;;;;;;;0.90;0.90;;;;;;;14.40;56.58;100585.97;5033684;27;97069;-86
2022/11/07 02:42:56;;;;;;;1.30;1.20;;;;;;;14.39;56.67;100586.50;5041174;27;96835;-82
2022/11/07 02:45:28;;;;;;;0.80;0.80;;;;;;;14.42;56.75;100588.22;5047183;27;100531;-83
2022/11/07 02:47:54;;;;;;;0.90;0.70;;;;;;;14.43;56.63;100584.94;5057641;27;98587;-82
2022/11/07 02:50:20;;;;;;;0.97;0.80;;;;;;;14.45;56.78;100598.25;5051592;27;97201;-81
2022/11/07 02:52:45;;;;;;;0.90;0.90;;;;;;;14.46;56.65;100591.47;5047144;27;96863;-81
2022/11/07 02:55:13;;;;;;;2.03;0.80;;;;;;;14.45;56.56;100581.66;5045057;27;98550;-82
2022/11/07 02:57:38;;;;;;;1.67;1.20;;;;;;;14.47;56.70;100590.94;5061994;27;97208;-85
2022/11/07 03:00:06;;;;;;;1.67;1.00;;;;;;;14.40;56.50;100572.13;5035079;27;96870;-81
2022/11/07 03:02:32;;;;;;;1.83;1.23;;;;;;;14.52;56.74;100592.16;5031915;27;97176;-84
2022/11/07 03:04:57;;;;;;;3.43;1.40;;;;;;;14.47;56.71;100585.41;5050209;27;98657;-86
2022/11/07 03:07:24;;;;;;;3.23;1.13;;;;;;;14.48;56.69;100578.56;5056383;27;96974;-83
2022/11/07 03:09:49;;;;;;;1.90;1.07;;;;;;;14.51;56.70;100577.53;5038299;27;97398;-83
2022/11/07 03:12:15;;;;;;;2.40;0.93;;;;;;;14.55;56.74;100591.09;5061434;27;97432;-81
2022/11/07 03:14:40;;;;;;;1.53;0.90;;;;;;;14.56;56.67;100579.50;5060213;27;97346;-83
2022/11/07 03:17:06;;;;;;;0.80;0.73;;;;;;;14.56;56.73;100593.34;5054781;27;97120;-84
2022/11/07 03:19:31;;;;;;;5.70;1.00;;;;;;;14.55;56.66;100596.63;5063448;27;96848;-82
2022/11/07 03:21:57;;;;;;;2.23;0.97;;;;;;;14.54;56.72;100590.34;5030735;27;97144;-84
2022/11/07 03:24:22;;;;;;;1.67;1.23;;;;;;;14.56;56.70;100592.59;5067115;27;98921;-84
2022/11/07 03:26:47;;;;;;;1.50;0.90;;;;;;;14.59;56.71;100599.88;5064253;27;97096;-84
2022/11/07 03:29:13;;;;;;;1.57;0.90;;;;;;;14.59;56.71;100599.88;5042293;27;97017;-83
2022/11/07 03:31:38;;;;;;;0.80;0.80;;;;;;;14.59;56.75;100597.84;5043644;27;97297;-83
2022/11/07 03:34:04;;;;;;;3.00;1.00;;;;;;;14.60;56.74;100593.81;5038328;27;97270;-83
2022/11/07 03:36:29;;;;;;;3.20;1.67;;;;;;;14.62;56.69;100598.81;5064418;27;97198;-81
2022/11/07 03:38:55;;;;;;;3.07;1.03;;;;;;;14.64;56.75;100604.56;5051260;27;97165;-83
2022/11/07 03:41:20;;;;;;;1.47;0.90;;;;;;;14.64;56.81;100616.41;5065614;27;96920;-82
2022/11/07 03:43:46;;;;;;;1.97;1.00;;;;;;;14.62;56.75;100632.78;5040756;27;97951;-88
2022/11/07 03:46:14;;;;;;;1.20;1.03;;;;;;;14.64;56.77;100608.09;5046729;27;97234;-83
2022/11/07 03:48:39;;;;;;;1.10;0.80;;;;;;;14.64;56.67;100605.34;5039586;27;97209;-81
2022/11/07 03:51:05;;;;;;;1.30;0.90;;;;;;;14.65;56.85;100601.31;5049932;27;97451;-82
2022/11/07 03:53:31;;;;;;;1.10;1.00;;;;;;;14.67;56.82;100622.94;5040328;27;98756;-84
2022/11/07 03:55:57;;;;;;;2.10;0.97;;;;;;;14.63;56.77;100626.00;5050513;27;99738;-83
2022/11/07 03:58:23;;;;;;;1.07;0.83;;;;;;;14.63;56.87;100616.94;5067777;27;100950;-82
2022/11/07 04:00:49;;;;;;;2.60;1.30;;;;;;;14.67;56.80;100614.63;5046782;27;96837;-80
2022/11/07 04:03:14;;;;;;;4.07;1.30;;;;;;;14.67;56.80;100609.84;5050852;27;96759;-82
2022/11/07 04:05:40;;;;;;;1.53;0.80;;;;;;;14.68;56.79;100614.09;5049466;27;98571;-81
2022/11/07 04:08:06;;;;;;;1.47;1.03;;;;;;;14.71;56.84;100620.59;5065715;27;96965;-86
2022/11/07 04:10:31;;;;;;;3.27;1.20;;;;;;;14.67;56.72;100609.09;5067905;27;97111;-81
2022/11/07 04:18:26;;;;;;;0.83;0.83;;;;;;;14.68;56.82;100610.56;5063332;27;96935;-83
2022/11/07 04:20:52;;;;;;;1.03;0.87;;;;;;;14.72;56.79;100613.81;5043396;27;97421;-84
2022/11/07 04:23:17;;;;;;;2.43;1.03;;;;;;;14.73;56.79;100615.28;5045868;27;98309;-82
2022/11/07 04:28:27;;;;;;;3.97;0.90;;;;;;;14.69;56.72;100606.53;5065528;27;97475;-82
2022/11/07 04:30:52;;;;;;;1.27;1.00;;;;;;;14.68;56.67;100616.09;5047682;27;96912;-85
2022/11/07 04:33:17;;;;;;;2.03;0.70;;;;;;;14.64;56.66;100623.97;5044054;27;99801;-80
2022/11/07 04:35:43;;;;;;;1.67;0.80;;;;;;;14.65;56.81;100626.22;5049191;27;98417;-80
2022/11/07 04:38:08;;;;;;;4.50;1.13;;;;;;;14.64;56.77;100629.50;5040088;27;97181;-81
2022/11/07 04:40:34;;;;;;;0.63;0.63;;;;;;;14.66;56.77;100633.25;5046391;27;96802;-82
2022/11/07 04:42:59;;;;;;;2.57;1.00;;;;;;;14.69;56.70;100643.28;5038890;27;97466;-82
2022/11/07 04:45:25;;;;;;;0.90;0.90;;;;;;;14.69;56.76;100629.44;5052359;27;97604;-81
2022/11/07 04:47:50;;;;;;;1.37;0.70;;;;;;;14.73;56.66;100631.91;5046258;27;97063;-83
2022/11/07 04:50:18;;;;;;;0.90;0.60;;;;;;;14.71;56.69;100632.44;5047292;27;96996;-84
2022/11/07 04:52:45;;;;;;;1.27;1.00;;;;;;;14.72;56.58;100647.78;5064946;27;98031;-81
2022/11/07 04:55:18;;;;;;;0.63;0.57;;;;;;;14.72;56.71;100633.19;5047608;27;97319;-84
2022/11/07 04:57:44;;;;;;;0.90;0.60;;;;;;;14.71;56.69;100632.44;5039448;27;97441;-81
2022/11/07 05:00:10;;;;;;;1.47;0.83;;;;;;;14.67;56.61;100642.31;5062630;27;97221;-82
2022/11/07 05:02:35;;;;;;;1.00;0.90;;;;;;;14.67;56.68;100632.00;5047587;27;98654;-81
2022/11/07 05:05:01;;;;;;;2.60;0.97;;;;;;;14.66;56.85;100644.31;5055559;27;98312;-83
2022/11/07 05:07:26;;;;;;;2.00;0.80;;;;;;;14.62;56.79;100640.34;5046115;27;98770;-83
2022/11/07 05:09:52;;;;;;;1.40;0.70;;;;;;;14.60;56.71;100649.19;5046272;27;97369;-85
2022/11/07 05:12:17;;;;;;;1.10;0.60;;;;;;;14.58;56.93;100637.88;5042423;27;99160;-82
2022/11/07 05:14:42;;;;;;;1.73;0.83;;;;;;;14.56;56.85;100643.19;5066379;27;97680;-84
2022/11/07 05:17:14;;;;;;;0.83;0.80;;;;;;;14.51;57.07;100630.16;5046305;27;97252;-85
2022/11/07 05:19:41;;;;;;;1.50;0.83;;;;;;;14.49;56.91;100632.69;5039311;27;97314;-82
2022/11/07 05:24:51;;;;;;;0.70;0.60;;;;;;;14.45;57.16;100631.47;5060424;27;101328;-84
2022/11/07 05:27:18;;;;;;;2.13;0.73;;;;;;;14.46;56.92;100622.63;5061356;27;97776;-81
2022/11/07 05:29:44;;;;;;;3.23;0.73;;;;;;;14.45;57.10;100637.75;5048061;27;97471;-82
2022/11/07 05:32:10;;;;;;;1.13;0.63;;;;;;;14.44;57.13;100624.47;5045065;27;98397;-82
2022/11/07 05:34:35;;;;;;;1.57;0.90;;;;;;;14.43;56.80;100632.00;5067341;27;97243;-86
2022/11/07 05:37:00;;;;;;;0.87;0.60;;;;;;;14.36;57.12;100632.56;5045157;27;97150;-80
2022/11/07 05:39:26;;;;;;;0.90;0.60;;;;;;;14.34;57.28;100651.72;5059168;27;97181;-83
2022/11/07 05:41:51;;;;;;;1.70;0.77;;;;;;;14.34;57.31;100640.66;5047705;27;99460;-82
2022/11/07 05:44:17;;;;;;;3.17;0.60;;;;;;;14.31;57.21;100647.22;5056008;27;97528;-82
2022/11/07 05:46:42;;;;;;;0.77;0.77;;;;;;;14.35;57.27;100655.97;5064362;27;96653;-86
2022/11/07 05:49:07;;;;;;;1.27;0.60;;;;;;;14.36;57.21;100651.94;5064430;27;97767;-85
2022/11/07 05:51:33;;;;;;;0.90;0.80;;;;;;;14.40;57.44;100655.16;5064690;27;96782;-81
2022/11/07 05:53:58;;;;;;;1.93;0.90;;;;;;;14.45;57.38;100648.09;5055386;27;97268;-81
2022/11/07 05:56:24;;;;;;;1.43;0.67;;;;;;;14.48;57.26;100649.81;5047026;27;96591;-82
2022/11/07 05:58:49;;;;;;;2.97;0.87;;;;;;;14.48;57.27;100667.16;5043508;27;96962;-81
2022/11/07 06:01:14;;;;;;;1.10;0.70;;;;;;;14.52;57.21;100653.06;5037576;27;97851;-83
2022/11/07 06:03:40;;;;;;;4.10;1.00;;;;;;;14.52;57.13;100653.06;5047489;27;99657;-81
2022/11/07 06:06:05;;;;;;;2.70;0.83;;;;;;;14.53;57.05;100655.28;5060693;27;97248;-84
2022/11/07 06:08:31;;;;;;;0.93;0.63;;;;;;;14.55;57.24;100647.22;5046667;27;97133;-83
2022/11/07 06:10:56;;;;;;;1.80;0.73;;;;;;;14.57;57.17;100666.81;5061932;27;97155;-81
2022/11/07 06:13:22;;;;;;;0.80;0.70;;;;;;;14.59;57.19;100667.03;5064747;27;97702;-81
2022/11/07 06:15:47;;;;;;;1.77;0.80;;;;;;;14.60;57.25;100682.41;5061618;27;96723;-83
2022/11/07 06:18:19;;;;;;;2.83;0.80;;;;;;;14.58;57.15;100682.19;5043732;27;97243;-83
2022/11/07 06:20:44;;;;;;;0.80;0.73;;;;;;;14.58;57.21;100684.19;5065775;27;100570;-84
2022/11/07 06:23:10;;;;;;;1.47;0.70;;;;;;;14.55;57.38;100685.97;5046817;27;98720;-81
2022/11/07 06:25:36;;;;;;;1.93;0.63;;;;;;;14.58;57.24;100687.72;5066661;27;96869;-82
2022/11/07 06:28:05;;;;;;;0.90;0.70;;;;;;;14.62;57.19;100685.41;5039943;27;96803;-81
2022/11/07 06:30:31;;;;;;;0.70;0.60;;;;;;;14.65;57.24;100686.38;5041099;27;97465;-81
2022/11/07 06:33:02;;;;;;;3.07;1.03;;;;;;;14.68;57.21;100688.84;5041913;27;97464;-83
2022/11/07 06:35:28;;;;;;;2.87;1.37;;;;;;;14.66;57.23;100702.47;5048255;27;97079;-82
2022/11/07 06:37:53;;;;;;;1.13;0.90;;;;;;;14.63;57.32;100697.22;5042844;27;97094;-82
2022/11/07 06:40:19;;;;;;;1.80;0.77;;;;;;;14.65;57.41;100701.00;5042757;27;96843;-84
2022/11/07 06:42:44;;;;;;;1.87;0.83;;;;;;;14.64;57.37;100705.00;5052843;27;97563;-84
2022/11/07 06:45:10;;;;;;;0.60;0.60;;;;;;;14.65;57.44;100712.06;5062571;27;96742;-82
2022/11/07 06:47:36;;;;;;;0.80;0.60;;;;;;;14.71;57.41;100709.22;5056641;27;96901;-81
2022/11/07 06:50:01;;;;;;;1.73;0.60;;;;;;;14.71;57.16;100725.84;5063546;27;96749;-83
2022/11/07 06:52:27;;;;;;;1.30;0.93;;;;;;;14.73;57.15;100717.75;5055593;27;97980;-82
2022/11/07 06:54:53;;;;;;;4.07;1.00;;;;;;;14.75;57.38;100727.06;5054626;27;97028;-84
2022/11/07 06:57:18;;;;;;;0.77;0.60;;;;;;;14.75;57.45;100729.06;5043165;27;96765;-82
2022/11/07 06:59:44;;;;;;;1.77;0.70;;;;;;;14.78;57.51;100722.50;5047126;27;98740;-86
2022/11/07 07:02:12;;;;;;;1.23;0.70;;;;;;;14.79;57.29;100721.97;5056819;27;98534;-81
2022/11/07 07:04:38;;;;;;;1.90;0.70;;;;;;;14.82;57.28;100711.88;5040325;27;97089;-81
2022/11/07 07:07:03;;;;;;;1.00;0.80;;;;;;;14.84;57.26;100729.47;5042558;27;97265;-82
2022/11/07 07:09:29;;;;;;;1.40;0.80;;;;;;;14.86;57.38;100726.94;5046105;27;99680;-82
2022/11/07 07:11:54;;;;;;;1.53;0.70;;;;;;;14.90;57.36;100726.63;5048834;27;98038;-83
2022/11/07 07:14:19;;;;;;;1.70;0.70;;;;;;;14.93;57.15;100731.91;5055294;27;96884;-80
2022/11/07 07:16:45;;;;;;;2.93;1.07;;;;;;;14.96;57.17;100741.22;5036925;27;96733;-81
2022/11/07 07:19:11;;;;;;;0.90;0.60;;;;;;;14.97;57.43;100737.16;5042185;27;99750;-82
2022/11/07 07:21:37;;;;;;;3.87;0.90;;;;;;;15.00;57.36;100742.38;5056260;27;99607;-81
2022/11/07 07:24:03;;;;;;;2.93;0.97;;;;;;;15.05;57.13;100729.00;5059121;27;96707;-81
2022/11/07 07:26:28;;;;;;;1.23;0.73;;;;;;;15.05;57.33;100731.78;5044473;27;97246;-82
2022/11/07 07:28:54;;;;;;;1.10;0.70;;;;;;;15.08;57.35;100733.50;5043962;27;99480;-80
2022/11/07 07:31:23;;;;;;;2.60;1.00;;;;;;;15.11;57.07;100738.75;5041267;27;99238;-82
2022/11/07 07:33:49;;;;;;;2.40;1.03;;;;;;;15.17;57.28;100733.91;5036889;27;97266;-80
2022/11/07 07:36:15;;;;;;;0.80;0.53;;;;;;;15.18;57.33;100734.66;5045207;27;96744;-84
2022/11/07 07:38:40;;;;;;;5.07;1.00;;;;;;;15.22;57.18;100735.09;5061819;27;97006;-82
2022/11/07 07:41:06;;;;;;;3.10;0.80;;;;;;;15.25;57.17;100732.03;5064306;27;96981;-81
2022/11/07 07:43:32;;;;;;;3.93;1.00;;;;;;;15.31;57.17;100737.53;5044209;27;96972;-82
2022/11/07 07:46:02;;;;;;;1.43;0.70;;;;;;;15.33;56.98;100741.25;5060950;27;97050;-83
2022/11/07 07:48:28;;;;;;;3.57;0.90;;;;;;;15.31;57.05;100745.84;5053741;27;101048;-83
2022/11/07 07:50:53;;;;;;;1.97;0.93;;;;;;;15.29;57.15;100738.03;5044564;27;99462;-82
2022/11/07 07:53:19;;;;;;;0.80;0.60;;;;;;;15.32;57.06;100730.69;5036110;27;96861;-83
2022/11/07 07:55:45;;;;;;;3.67;0.80;;;;;;;15.35;57.03;100733.19;5038156;27;97280;-83
2022/11/07 07:58:11;;;;;;;3.93;0.70;;;;;;;15.39;56.93;100732.88;5044553;27;99972;-82
2022/11/07 08:00:37;;;;;;;1.20;0.93;;;;;;;15.41;57.16;100747.72;5043770;27;99831;-82
2022/11/07 08:03:05;;;;;;;3.27;0.73;;;;;;;15.46;57.00;100737.84;5041305;27;97865;-85
2022/11/07 08:05:31;;;;;;;1.43;0.70;;;;;;;15.46;56.99;100744.16;5048914;27;97094;-83
2022/11/07 08:07:56;;;;;;;2.33;1.13;;;;;;;15.50;56.93;100743.84;5066976;27;97505;-82
2022/11/07 08:10:22;;;;;;;1.67;1.10;;;;;;;15.51;56.85;100735.00;5042968;27;98136;-85
2022/11/07 08:12:50;;;;;;;3.60;1.30;;;;;;;15.51;56.92;100739.78;5039634;27;97359;-82
2022/11/07 08:15:17;;;;;;;2.10;0.83;;;;;;;15.52;56.92;100747.59;5040799;27;97253;-82
2022/11/07 08:17:43;;;;;;;1.10;0.90;;;;;;;15.59;56.90;100746.25;5056995;27;97523;-82
2022/11/07 08:20:10;;;;;;;3.47;0.93;;;;;;;15.65;56.83;100744.16;5065012;27;97183;-83
2022/11/07 08:22:37;;;;;;;1.73;0.80;;;;;;;15.67;56.84;100747.16;5045023;27;97205;-83
2022/11/07 08:25:03;;;;;;;2.83;0.83;;;;;;;15.72;56.81;100749.09;5043040;27;97213;-84
2022/11/07 08:27:29;;;;;;;5.43;1.10;;;;;;;15.74;56.74;100752.09;5041397;27;97737;-81
2022/11/07 08:29:54;;;;;;;2.47;1.13;;;;;;;15.75;56.66;100764.69;5041969;27;98671;-82
2022/11/07 08:32:19;;;;;;;1.90;0.73;;;;;;;15.81;56.77;100757.06;5045773;27;97124;-83
2022/11/07 08:34:45;;;;;;;3.83;0.90;;;;;;;15.84;56.54;100755.97;5046402;27;97362;-84
2022/11/07 08:37:10;;;;;;;0.70;0.57;;;;;;;15.89;56.54;100766.25;5062004;27;96820;-84
2022/11/07 08:39:36;;;;;;;3.93;0.80;;;;;;;15.92;56.54;100764.47;5047948;27;97705;-83
2022/11/07 08:42:01;;;;;;;7.53;1.07;;;;;;;15.93;56.49;100758.38;5047277;27;97185;-83
2022/11/07 08:44:26;;;;;;;1.03;0.80;;;;;;;15.98;56.41;100760.31;5059725;27;97348;-85
2022/11/07 08:46:52;;;;;;;4.87;1.13;;;;;;;15.98;56.35;100759.56;5042580;27;99650;-82
2022/11/07 08:49:17;;;;;;;2.83;1.33;;;;;;;16.01;56.36;100770.34;5038026;27;97503;-83
2022/11/07 08:51:44;;;;;;;4.60;1.10;;;;;;;16.02;56.36;100765.56;5051142;27;97130;-84
2022/11/07 08:54:11;;;;;;;1.70;0.90;;;;;;;16.02;56.35;100774.66;5059953;27;96927;-83
2022/11/07 08:56:36;;;;;;;1.37;0.77;;;;;;;16.01;56.27;100767.59;5056058;27;98174;-83
2022/11/07 08:59:02;;;;;;;1.40;0.77;;;;;;;16.07;56.25;100779.38;5047495;27;99504;-83
2022/11/07 09:01:27;;;;;;;3.50;0.80;;;;;;;16.10;56.08;100766.44;5046587;27;96696;-82
2022/11/07 09:03:53;;;;;;;1.43;0.90;;;;;;;16.07;56.19;100782.16;5061701;27;97133;-85
2022/11/07 09:06:18;;;;;;;2.30;1.10;;;;;;;16.10;56.26;100766.44;5044809;27;98458;-83
2022/11/07 09:08:44;;;;;;;2.23;0.87;;;;;;;16.16;56.18;100773.41;5042495;27;98550;-83
2022/11/07 09:11:14;;;;;;;2.40;0.93;;;;;;;16.21;55.95;100777.38;5046150;27;97385;-85
2022/11/07 09:13:40;;;;;;;2.60;0.87;;;;;;;16.23;56.00;100786.69;5065082;27;97043;-85
2022/11/07 09:16:05;;;;;;;1.83;0.90;;;;;;;16.26;55.88;100780.09;5062288;27;96991;-87
2022/11/07 09:18:32;;;;;;;2.97;1.20;;;;;;;16.23;55.94;100772.81;5041511;27;98390;-83
2022/11/07 09:20:57;;;;;;;4.73;1.40;;;;;;;16.26;55.88;100771.00;5056330;27;97039;-84
2022/11/07 09:23:24;;;;;;;1.70;0.80;;;;;;;16.32;55.92;100777.97;5038518;27;97236;-83
2022/11/07 09:25:49;;;;;;;2.73;1.00;;;;;;;16.43;55.70;100788.13;5062651;27;99490;-82
2022/11/07 09:28:15;;;;;;;1.73;1.20;;;;;;;16.46;55.47;100787.84;5043951;27;97122;-85
2022/11/07 09:30:40;;;;;;;0.87;0.60;;;;;;;16.42;55.59;100770.00;5046112;27;96742;-84
2022/11/07 09:33:06;;;;;;;0.80;0.80;;;;;;;16.43;55.59;100783.34;5058071;27;97127;-83
2022/11/07 09:35:31;;;;;;;5.03;1.00;;;;;;;16.46;55.67;100781.53;5038326;27;97147;-83
2022/11/07 09:37:57;;;;;;;2.63;1.40;;;;;;;16.48;55.54;100768.63;5062983;27;97682;-85
2022/11/07 09:40:44;;;;;;;1.33;0.73;;;;;;;16.45;54.88;100791.88;5035421;27;96927;-85
2022/11/07 09:43:34;;;;;;;7.00;1.40;;;;;;;16.44;55.34;100773.75;5045572;27;97547;-83
2022/11/07 09:46:08;;;;;;;2.10;1.17;;;;;;;16.44;55.24;100781.31;5063125;27;100970;-85
2022/11/07 09:48:43;;;;;;;3.43;1.10;;;;;;;16.44;55.35;100790.41;5039347;27;97310;-86
2022/11/07 09:51:14;;;;;;;2.60;1.10;;;;;;;16.41;55.05;100776.81;5062131;27;97501;-84
2022/11/07 09:53:49;;;;;;;3.30;1.40;;;;;;;16.40;55.05;100795.50;5060479;27;97005;-84
2022/11/07 09:56:15;;;;;;;4.27;1.10;;;;;;;16.37;55.51;100785.47;5063486;27;96939;-83
2022/11/07 09:58:50;;;;;;;5.40;1.40;;;;;;;16.33;55.34;100787.03;5013203;27;97682;-83
2022/11/07 10:01:19;;;;;;;2.23;0.80;;;;;;;16.34;55.69;100783.72;5035412;27;97036;-83
2022/11/07 10:03:45;;;;;;;4.03;1.20;;;;;;;16.34;55.50;100792.06;5031572;27;97558;-80
2022/11/07 10:06:18;;;;;;;3.43;1.23;;;;;;;16.37;55.44;100791.00;5047787;27;97136;-84
2022/11/07 10:09:07;;;;;;;3.73;1.30;;;;;;;16.34;55.42;100777.44;5038444;27;97322;-82
2022/11/07 10:11:37;;;;;;;2.27;0.97;;;;;;;16.43;55.45;100800.00;5044626;27;96873;-81
2022/11/07 10:14:05;;;;;;;2.40;1.00;;;;;;;16.40;55.25;100801.03;5065081;27;97195;-83
2022/11/07 10:17:01;;;;;;;3.10;1.13;;;;;;;16.43;55.27;100808.34;5044323;27;98756;-82
2022/11/07 10:19:32;;;;;;;1.63;0.97;;;;;;;16.51;55.18;100804.97;5041447;27;101039;-81
2022/11/07 10:22:16;;;;;;;1.57;0.77;;;;;;;16.52;55.18;100810.00;5044246;27;97101;-82
2022/11/07 10:24:57;;;;;;;2.20;1.00;;;;;;;16.57;54.98;100813.97;5054687;27;97288;-83
2022/11/07 10:27:23;;;;;;;2.73;0.93;;;;;;;16.56;55.30;100807.66;5054961;27;100860;-85
2022/11/07 10:29:52;;;;;;;5.20;1.00;;;;;;;16.61;55.20;100803.28;5045031;27;99233;-83
2022/11/07 10:32:36;;;;;;;1.13;1.00;;;;;;;16.64;55.06;100802.22;5048939;27;97431;-82
2022/11/07 10:35:23;;;;;;;3.73;0.93;;;;;;;16.70;54.94;100800.84;5054423;27;97100;-81
2022/11/07 10:37:57;;;;;;;3.37;1.27;;;;;;;16.77;54.52;100813.38;5045084;27;98873;-83
2022/11/07 10:40:27;;;;;;;1.70;0.73;;;;;;;16.77;55.00;100807.81;5028491;27;98943;-80
2022/11/07 10:42:55;;;;;;;4.40;1.00;;;;;;;16.78;55.26;100814.84;5051182;27;97003;-82
2022/11/07 10:45:21;;;;;;;3.50;0.77;;;;;;;16.77;55.02;100814.13;5032809;27;96941;-82
2022/11/07 10:48:01;;;;;;;3.83;1.20;;;;;;;16.78;54.42;100815.59;5026649;27;98560;-83
2022/11/07 10:50:27;;;;;;;2.03;1.27;;;;;;;16.82;55.11;100823.66;5027752;27;96777;-81
2022/11/07 10:53:04;;;;;;;6.90;1.23;;;;;;;16.84;54.70;100812.75;5051951;27;96973;-82
2022/11/07 10:55:42;;;;;;;1.10;0.93;;;;;;;16.88;54.81;100815.97;5039792;27;96957;-83
2022/11/07 10:58:15;;;;;;;5.87;1.37;;;;;;;16.93;54.85;100813.06;5060160;27;98313;-83
2022/11/07 11:00:42;;;;;;;1.83;0.70;;;;;;;16.82;54.81;100806.97;5044291;27;99488;-80
2022/11/07 11:03:24;;;;;;;4.00;1.23;;;;;;;16.81;54.82;100806.22;5045809;27;97304;-84
2022/11/07 11:05:49;;;;;;;5.13;1.37;;;;;;;16.85;54.79;100811.44;5042882;27;97614;-85
2022/11/07 11:08:20;;;;;;;1.73;1.20;;;;;;;16.83;54.94;100805.69;5045549;27;98367;-82
2022/11/07 11:10:46;;;;;;;2.27;1.10;;;;;;;16.82;55.23;100809.75;5041220;27;97123;-80
2022/11/07 11:13:32;;;;;;;3.93;1.00;;;;;;;16.82;54.79;100804.94;5044271;27;97047;-83
2022/11/07 11:16:25;;;;;;;2.87;0.90;;;;;;;16.84;54.98;100804.41;5061330;27;96673;-81
2022/11/07 11:18:55;;;;;;;1.57;0.70;;;;;;;16.86;55.02;100796.28;5028719;27;100581;-82
2022/11/07 11:21:21;;;;;;;3.80;0.90;;;;;;;16.88;55.11;100796.50;5051958;27;97804;-83
2022/11/07 11:23:47;;;;;;;3.70;1.13;;;;;;;16.89;55.06;100795.97;5025730;27;96913;-80
2022/11/07 11:26:24;;;;;;;1.57;0.80;;;;;;;16.92;54.85;100794.91;5054179;27;97429;-82
2022/11/07 11:29:12;;;;;;;4.40;1.00;;;;;;;16.95;54.65;100793.09;5040610;27;97046;-81
2022/11/07 11:31:47;;;;;;;4.83;1.33;;;;;;;16.98;54.92;100792.78;5071305;27;97339;-80
2022/11/07 11:34:18;;;;;;;4.13;0.83;;;;;;;17.02;55.00;100789.66;5046431;27;97458;-82
2022/11/07 11:36:54;;;;;;;3.13;1.47;;;;;;;17.05;54.85;100786.59;5050434;27;96888;-81
2022/11/07 11:39:28;;;;;;;5.30;0.97;;;;;;;17.13;54.59;100792.22;5062018;27;102154;-84